Morinville, Canada
Current Conditions -  °F | °C
As of 9:18 PM on Sunday 23 Nov 2014 (Local Time) from CYED Reporting Station
Overcast Overcast  
Wind Chill: 27°   Ceiling: 1000
Heat Index: 27°   Visibility: 8mi
Dew Point: 23°   Wind: 3mph
Humidity: 86%   Direction: 240°WSW
Pressure: 29.71"   Gusts: NA
Location:  53.8°N, 113.65°W
Report Text: CYED 240418Z AUTO 24003KT 8SM VV010 M03/M05 A2971
Loading
Personal Weather Stations






























Interactive Weather Map New forecast layout! Learn more

10-Day Weather Forecast

Advertisements
Track Severe Weather on mobile